Time;durP1;ratioP1;P1;durP2;ratioP2;P2;SDS_P1;SDS_P2;PMS_P1;PMS_P2;Temp;Humidity;BMP_temperature;BMP_pressure;BME280_temperature;BME280_humidity;BME280_pressure;Samples;Min_cycle;Max_cycle;Signal;HPM_P1;HPM_P2
2021/11/03 00:02:02;;;;;;;8.75;5.90;;;10.30;99.90;;;;;;5073822;28;20119;-82
2021/11/03 00:04:29;;;;;;;12.40;7.10;;;10.00;99.90;;;;;;5074996;28;20013;-83
2021/11/03 00:06:55;;;;;;;9.55;5.68;;;7.20;99.90;;;;;;5072719;28;20527;-80
2021/11/03 00:09:21;;;;;;;11.43;6.80;;;10.70;99.90;;;;;;5075094;28;20048;-78
2021/11/03 00:11:47;;;;;;;9.60;6.30;;;9.30;99.90;;;;;;5070274;28;20025;-82
2021/11/03 00:14:12;;;;;;;12.05;6.63;;;10.40;99.90;;;;;;5070519;28;20021;-81
2021/11/03 00:16:38;;;;;;;12.43;6.90;;;9.20;99.90;;;;;;5071096;28;20021;-85
2021/11/03 00:19:04;;;;;;;9.77;6.28;;;8.10;99.90;;;;;;5069154;28;20031;-81
2021/11/03 00:21:29;;;;;;;9.93;6.22;;;8.60;99.90;;;;;;5070352;28;20035;-80
2021/11/03 00:23:55;;;;;;;14.23;7.05;;;9.90;99.90;;;;;;5068123;28;20024;-85
2021/11/03 00:26:23;;;;;;;7.82;5.70;;;9.50;99.90;;;;;;5070845;28;20028;-86
2021/11/03 00:28:49;;;;;;;12.05;6.30;;;10.50;99.90;;;;;;5065103;28;20359;-79
2021/11/03 00:31:15;;;;;;;7.78;5.65;;;8.90;99.90;;;;;;5070411;28;20111;-81
2021/11/03 00:33:41;;;;;;;9.00;5.25;;;9.40;99.90;;;;;;5067753;28;20063;-86
2021/11/03 00:36:07;;;;;;;10.55;5.57;;;9.40;99.90;;;;;;5068685;28;20035;-84
2021/11/03 00:38:33;;;;;;;14.30;5.38;;;;;;;;;;5067240;28;20029;-83
2021/11/03 00:40:59;;;;;;;8.30;5.72;;;8.30;99.90;;;;;;5083427;28;20040;-82
2021/11/03 00:43:28;;;;;;;9.07;5.75;;;8.10;99.90;;;;;;5068981;28;20020;-85
2021/11/03 00:45:56;;;;;;;9.05;5.18;;;8.40;99.90;;;;;;5067784;28;20037;-81
2021/11/03 00:48:21;;;;;;;8.63;4.93;;;8.30;99.90;;;;;;5066440;28;20032;-82
2021/11/03 00:50:48;;;;;;;6.13;3.88;;;10.40;99.90;;;;;;5069727;28;20036;-83
2021/11/03 00:53:14;;;;;;;6.90;4.47;;;8.40;99.90;;;;;;5072249;28;20032;-83
2021/11/03 00:55:42;;;;;;;6.07;3.80;;;8.40;99.90;;;;;;5068057;28;20037;-85
2021/11/03 00:58:07;;;;;;;9.27;4.10;;;8.40;99.90;;;;;;5066977;28;20773;-82
2021/11/03 01:00:34;;;;;;;4.97;3.45;;;9.20;99.90;;;;;;5070154;28;20027;-85
2021/11/03 01:03:04;;;;;;;6.32;3.45;;;8.30;99.90;;;;;;5064500;28;20033;-84
2021/11/03 01:05:30;;;;;;;5.75;3.00;;;8.30;99.90;;;;;;5065466;28;20290;-85
2021/11/03 01:07:56;;;;;;;8.25;3.53;;;8.20;99.90;;;;;;5065819;28;20021;-87
2021/11/03 01:10:32;;;;;;;4.90;2.92;;;8.30;99.90;;;;;;5073495;28;20051;-86
2021/11/03 01:12:57;;;;;;;8.20;2.80;;;8.30;99.90;;;;;;5080161;28;20036;-85
2021/11/03 01:15:25;;;;;;;6.40;3.53;;;8.30;99.90;;;;;;5079654;28;20041;-83
2021/11/03 01:17:52;;;;;;;6.05;3.47;;;8.30;99.90;;;;;;5069253;28;20529;-81
2021/11/03 01:20:17;;;;;;;5.55;2.65;;;8.30;99.90;;;;;;5071542;28;20063;-83
2021/11/03 01:22:43;;;;;;;5.20;2.28;;;8.90;99.90;;;;;;5075067;28;20029;-81
2021/11/03 01:25:30;;;;;;;5.45;2.15;;;8.30;99.90;;;;;;5064668;28;20107;-85
2021/11/03 01:27:55;;;;;;;7.00;2.40;;;8.40;99.90;;;;;;5077108;28;20182;-81
2021/11/03 01:30:25;;;;;;;4.18;2.17;;;9.00;99.90;;;;;;5068761;28;20052;-82
2021/11/03 01:32:53;;;;;;;11.93;5.82;;;8.30;99.90;;;;;;5071788;28;20055;-82
2021/11/03 01:35:18;;;;;;;5.90;2.50;;;8.30;99.90;;;;;;5075083;28;20050;-83
2021/11/03 01:37:45;;;;;;;4.93;2.20;;;;;;;;;;5088864;28;20020;-81
2021/11/03 01:40:15;;;;;;;5.13;2.45;;;8.40;99.90;;;;;;5089211;28;20021;-87
2021/11/03 01:42:41;;;;;;;4.88;2.40;;;10.60;99.90;;;;;;5082782;28;20020;-85
2021/11/03 01:45:10;;;;;;;4.93;3.15;;;8.40;99.90;;;;;;5080995;28;20063;-89
2021/11/03 01:47:47;;;;;;;4.07;2.22;;;8.30;99.90;;;;;;5078793;28;20414;-85
2021/11/03 01:50:51;;;;;;;6.15;2.30;;;8.40;99.90;;;;;;5068978;28;20331;-85
2021/11/03 01:53:22;;;;;;;3.30;2.30;;;8.30;99.90;;;;;;5082994;28;20008;-79
2021/11/03 01:55:57;;;;;;;4.63;1.90;;;9.30;99.90;;;;;;5068837;28;20029;-81
2021/11/03 01:58:28;;;;;;;4.85;2.47;;;8.40;99.90;;;;;;5069115;28;20040;-81
2021/11/03 02:00:56;;;;;;;4.00;2.33;;;11.30;99.90;;;;;;5065034;28;20024;-81
2021/11/03 02:03:25;;;;;;;6.10;2.25;;;12.20;99.90;;;;;;5085229;28;20032;-80
2021/11/03 02:06:01;;;;;;;3.47;2.30;;;8.40;99.90;;;;;;5067658;28;20028;-80
2021/11/03 02:08:29;;;;;;;4.13;2.38;;;8.40;99.90;;;;;;5064783;28;20105;-82
2021/11/03 02:10:55;;;;;;;4.32;2.38;;;;;;;;;;5070198;28;20021;-81
2021/11/03 02:13:34;;;;;;;4.57;2.67;;;8.40;99.90;;;;;;5069168;28;20021;-83
2021/11/03 02:16:00;;;;;;;4.68;2.22;;;;;;;;;;5066686;28;20119;-85
2021/11/03 02:18:32;;;;;;;4.45;2.70;;;8.40;99.90;;;;;;5067075;28;20051;-83
2021/11/03 02:20:59;;;;;;;3.85;2.70;;;;;;;;;;5063973;28;20478;-79
2021/11/03 02:23:37;;;;;;;7.05;2.70;;;8.40;99.90;;;;;;5068835;28;20028;-82
2021/11/03 02:26:10;;;;;;;5.03;2.67;;;11.50;99.90;;;;;;5068115;28;20032;-85
2021/11/03 02:28:38;;;;;;;5.40;3.08;;;8.40;99.90;;;;;;5081647;28;20029;-80
2021/11/03 02:31:08;;;;;;;6.05;2.67;;;10.80;99.90;;;;;;5066685;28;20036;-82
2021/11/03 02:33:34;;;;;;;5.30;2.70;;;;;;;;;;5066261;28;20501;-80
2021/11/03 02:36:07;;;;;;;4.32;3.10;;;8.40;99.90;;;;;;5063918;28;20040;-83
2021/11/03 02:38:43;;;;;;;5.22;3.20;;;;;;;;;;5062437;28;20582;-85
2021/11/03 02:41:20;;;;;;;5.35;3.47;;;8.20;99.90;;;;;;5066190;28;20047;-87
2021/11/03 02:43:54;;;;;;;5.22;2.95;;;9.60;99.90;;;;;;5084243;28;20096;-82
2021/11/03 02:46:23;;;;;;;4.72;2.78;;;8.40;99.90;;;;;;5063830;28;20039;-81
2021/11/03 02:48:49;;;;;;;5.05;2.83;;;6.80;99.90;;;;;;5061428;28;20033;-85
2021/11/03 02:51:33;;;;;;;4.80;2.58;;;10.90;99.90;;;;;;5061099;28;20066;-83
2021/11/03 02:54:04;;;;;;;4.43;2.70;;;8.60;99.90;;;;;;5067133;28;20040;-80
2021/11/03 02:56:34;;;;;;;5.15;2.80;;;10.80;99.90;;;;;;5091383;28;20052;-83
2021/11/03 02:59:00;;;;;;;4.05;2.70;;;8.20;99.90;;;;;;5069890;28;20036;-82
2021/11/03 03:01:43;;;;;;;4.43;2.53;;;9.70;99.90;;;;;;5067702;28;20009;-82
2021/11/03 03:04:17;;;;;;;4.38;2.20;;;8.20;99.90;;;;;;5070020;28;22223;-80
2021/11/03 03:06:43;;;;;;;5.40;2.40;;;8.30;99.90;;;;;;5066818;28;20032;-82
2021/11/03 03:09:10;;;;;;;5.72;3.03;;;9.40;99.90;;;;;;5065895;28;20082;-82
2021/11/03 03:11:38;;;;;;;5.20;2.80;;;10.10;99.90;;;;;;5069453;28;20059;-81
2021/11/03 03:14:06;;;;;;;5.28;2.83;;;8.20;99.90;;;;;;5067113;28;20029;-89
2021/11/03 03:16:35;;;;;;;5.13;2.40;;;8.20;99.90;;;;;;5078713;28;20111;-88
2021/11/03 03:19:01;;;;;;;4.38;2.53;;;10.70;99.90;;;;;;5066751;28;20134;-85
2021/11/03 03:21:28;;;;;;;3.28;1.95;;;8.20;99.90;;;;;;5064470;28;20118;-84
2021/11/03 03:23:54;;;;;;;4.03;2.30;;;9.80;99.90;;;;;;5072466;28;20025;-80
2021/11/03 03:26:21;;;;;;;5.78;2.00;;;8.40;99.90;;;;;;5068835;28;20039;-83
2021/11/03 03:28:48;;;;;;;6.78;2.10;;;8.30;99.90;;;;;;5067688;28;20040;-79
2021/11/03 03:31:14;;;;;;;4.18;1.90;;;10.70;99.90;;;;;;5066085;28;20039;-79
2021/11/03 03:33:41;;;;;;;5.70;2.08;;;10.40;99.90;;;;;;5066575;28;20032;-81
2021/11/03 03:36:07;;;;;;;2.90;1.77;;;10.40;99.90;;;;;;5063993;28;20028;-79
2021/11/03 03:38:33;;;;;;;3.65;1.55;;;7.60;99.90;;;;;;5065172;28;20436;-82
2021/11/03 03:40:59;;;;;;;3.97;1.70;;;8.80;99.90;;;;;;5078401;28;20078;-82
2021/11/03 03:43:25;;;;;;;5.28;1.48;;;9.30;99.90;;;;;;5086120;28;20032;-79
2021/11/03 03:45:51;;;;;;;1.52;1.20;;;9.50;99.90;;;;;;5064854;28;20131;-81
2021/11/03 03:48:17;;;;;;;1.98;1.00;;;;;;;;;;5084419;28;20111;-82
2021/11/03 03:50:44;;;;;;;2.35;1.27;;;8.10;99.90;;;;;;5068684;28;20571;-78
2021/11/03 03:53:10;;;;;;;3.63;1.35;;;11.10;99.90;;;;;;5073679;28;20036;-88
2021/11/03 03:55:38;;;;;;;1.98;1.02;;;7.70;99.90;;;;;;5068684;28;20025;-80
2021/11/03 03:58:07;;;;;;;1.50;1.00;;;10.20;99.90;;;;;;5072449;28;20563;-83
2021/11/03 04:00:34;;;;;;;4.25;1.42;;;8.10;99.90;;;;;;5070049;28;20025;-85
2021/11/03 04:03:00;;;;;;;2.80;1.15;;;10.20;99.90;;;;;;5074166;28;20027;-80
2021/11/03 04:05:26;;;;;;;1.83;1.25;;;8.10;99.90;;;;;;5067167;28;20046;-82
2021/11/03 04:07:52;;;;;;;1.58;1.00;;;;;;;;;;5064839;28;20020;-83
2021/11/03 04:10:18;;;;;;;2.75;0.93;;;8.00;99.90;;;;;;5068602;28;20403;-85
2021/11/03 04:12:44;;;;;;;1.90;1.13;;;7.40;99.90;;;;;;5067321;28;20017;-84
2021/11/03 04:15:10;;;;;;;2.17;1.10;;;;;;;;;;5070192;28;20128;-85
2021/11/03 04:17:36;;;;;;;2.00;1.10;;;7.90;99.90;;;;;;5069261;28;20088;-81
2021/11/03 04:20:03;;;;;;;1.40;1.10;;;9.20;99.90;;;;;;5069431;28;20115;-80
2021/11/03 04:22:29;;;;;;;3.85;1.08;;;7.90;99.90;;;;;;5068763;28;20036;-86
2021/11/03 04:24:55;;;;;;;1.17;0.80;;;;;;;;;;5066373;28;20025;-85
2021/11/03 04:27:20;;;;;;;1.65;1.00;;;8.00;99.90;;;;;;5069410;28;20082;-82
2021/11/03 04:29:46;;;;;;;1.50;1.10;;;10.30;99.90;;;;;;5072662;28;20032;-81
2021/11/03 04:32:12;;;;;;;1.35;1.08;;;10.00;99.90;;;;;;5066736;28;20031;-81
2021/11/03 04:34:38;;;;;;;1.40;0.90;;;;;;;;;;5069654;28;20440;-83
2021/11/03 04:37:04;;;;;;;1.25;0.90;;;8.00;99.90;;;;;;5067305;28;20332;-86
2021/11/03 04:39:30;;;;;;;2.75;1.10;;;6.90;99.90;;;;;;5066101;28;20040;-84
2021/11/03 04:41:55;;;;;;;2.75;1.05;;;8.00;99.90;;;;;;5070240;28;20109;-84
2021/11/03 04:44:21;;;;;;;2.58;0.90;;;9.00;99.90;;;;;;5068034;28;20024;-81
2021/11/03 04:46:47;;;;;;;2.35;0.90;;;10.10;99.90;;;;;;5073156;28;20024;-85
2021/11/03 04:49:12;;;;;;;1.95;1.13;;;8.40;99.90;;;;;;5062505;28;20028;-84
2021/11/03 04:51:38;;;;;;;1.33;0.90;;;9.70;99.90;;;;;;5063745;28;20024;-85
2021/11/03 04:54:07;;;;;;;1.17;0.93;;;9.80;99.90;;;;;;5065219;28;20050;-85
2021/11/03 04:56:33;;;;;;;1.48;0.95;;;7.20;99.90;;;;;;5077024;28;20036;-85
2021/11/03 04:58:59;;;;;;;2.05;1.08;;;10.70;99.90;;;;;;5067278;28;20028;-80
2021/11/03 05:01:25;;;;;;;2.15;0.82;;;8.20;99.90;;;;;;5061094;28;20112;-84
2021/11/03 05:03:52;;;;;;;2.80;1.00;;;8.20;99.90;;;;;;5070828;28;20028;-86
2021/11/03 05:06:24;;;;;;;2.22;0.82;;;8.40;99.90;;;;;;5065035;28;20020;-80
2021/11/03 05:08:50;;;;;;;1.23;0.80;;;8.20;99.90;;;;;;5068938;28;20021;-81
2021/11/03 05:11:17;;;;;;;1.08;0.80;;;8.20;99.90;;;;;;5073560;28;20081;-83
2021/11/03 05:13:43;;;;;;;2.42;0.80;;;8.10;99.90;;;;;;5070383;28;20067;-85
2021/11/03 05:16:13;;;;;;;1.42;0.82;;;8.10;99.90;;;;;;5069620;28;20298;-82
2021/11/03 05:18:39;;;;;;;2.05;0.90;;;8.10;99.90;;;;;;5073629;28;20028;-85
2021/11/03 05:21:04;;;;;;;1.77;0.90;;;8.10;99.90;;;;;;5074675;28;20028;-82
2021/11/03 05:23:30;;;;;;;1.67;0.90;;;8.10;99.90;;;;;;5076440;28;20501;-81
2021/11/03 05:25:56;;;;;;;1.60;1.00;;;9.00;99.90;;;;;;5075377;28;20021;-81
2021/11/03 05:28:23;;;;;;;1.35;0.80;;;8.10;99.90;;;;;;5078501;28;20029;-79
2021/11/03 05:30:50;;;;;;;3.50;1.02;;;8.10;99.90;;;;;;5071266;28;20028;-83
2021/11/03 05:33:15;;;;;;;3.33;1.67;;;8.60;99.90;;;;;;5068813;28;20029;-79
2021/11/03 05:35:41;;;;;;;1.10;1.00;;;8.10;99.90;;;;;;5071635;28;20386;-82
2021/11/03 05:38:07;;;;;;;1.38;0.85;;;8.20;99.90;;;;;;5068109;28;20020;-82
2021/11/03 05:40:33;;;;;;;1.80;0.90;;;8.20;99.90;;;;;;5070059;28;20395;-77
2021/11/03 05:42:59;;;;;;;1.50;1.00;;;8.20;99.90;;;;;;5077082;28;20035;-84
2021/11/03 05:45:26;;;;;;;1.42;0.90;;;8.20;99.90;;;;;;5068302;28;20025;-82
2021/11/03 05:47:52;;;;;;;2.20;0.93;;;8.20;99.90;;;;;;5066574;28;20043;-82
2021/11/03 05:50:23;;;;;;;0.90;0.80;;;8.20;99.90;;;;;;5060740;28;20056;-85
2021/11/03 05:52:49;;;;;;;1.60;0.93;;;8.30;99.90;;;;;;5063415;28;20020;-82
2021/11/03 05:55:16;;;;;;;1.60;1.10;;;8.30;99.90;;;;;;5083924;28;20071;-83
2021/11/03 05:57:42;;;;;;;1.05;0.90;;;8.30;99.90;;;;;;5068087;28;20028;-79
2021/11/03 06:00:16;;;;;;;2.60;1.00;;;8.40;99.90;;;;;;5064861;28;20032;-80
2021/11/03 06:02:42;;;;;;;2.28;1.10;;;8.40;99.90;;;;;;5066733;28;20557;-81
2021/11/03 06:05:08;;;;;;;2.25;1.23;;;8.50;99.90;;;;;;5070278;28;20101;-80
2021/11/03 06:07:35;;;;;;;2.97;1.10;;;8.40;99.90;;;;;;5060651;28;20028;-83
2021/11/03 06:10:03;;;;;;;1.98;1.13;;;8.50;99.90;;;;;;5064359;28;20123;-82
2021/11/03 06:12:29;;;;;;;2.22;1.10;;;8.40;99.90;;;;;;5065338;28;20036;-82
2021/11/03 06:14:54;;;;;;;2.92;1.40;;;8.60;99.90;;;;;;5066340;28;20079;-79
2021/11/03 06:17:20;;;;;;;2.80;1.60;;;8.50;99.90;;;;;;5068844;28;20024;-80
2021/11/03 06:19:46;;;;;;;2.10;1.30;;;8.40;99.90;;;;;;5065776;28;20051;-80
2021/11/03 06:22:12;;;;;;;2.05;1.27;;;8.50;99.90;;;;;;5067336;28;20359;-80
2021/11/03 06:24:38;;;;;;;2.22;1.40;;;9.20;99.90;;;;;;5069116;28;20035;-81
2021/11/03 06:27:03;;;;;;;3.20;1.77;;;8.50;99.90;;;;;;5068289;28;20037;-82
2021/11/03 06:29:33;;;;;;;3.42;1.75;;;8.50;99.90;;;;;;5063278;28;20037;-83
2021/11/03 06:31:58;;;;;;;4.72;1.95;;;11.30;99.90;;;;;;5060085;28;20060;-84
2021/11/03 06:34:24;;;;;;;3.65;2.10;;;8.80;99.90;;;;;;5063938;28;20040;-81
2021/11/03 06:36:50;;;;;;;5.00;2.05;;;8.50;99.90;;;;;;5060563;28;20024;-81
2021/11/03 06:39:15;;;;;;;5.18;2.35;;;8.50;99.90;;;;;;5067944;28;20085;-79
2021/11/03 06:41:42;;;;;;;3.08;2.08;;;8.40;99.90;;;;;;5063613;28;20027;-83
2021/11/03 06:44:08;;;;;;;4.35;2.90;;;9.60;99.90;;;;;;5062393;28;20048;-79
2021/11/03 06:46:35;;;;;;;3.63;2.50;;;8.50;99.90;;;;;;5059034;28;20082;-81
2021/11/03 06:49:01;;;;;;;4.63;2.80;;;8.70;99.90;;;;;;5076338;28;20032;-82
2021/11/03 06:51:27;;;;;;;4.38;2.58;;;9.60;99.90;;;;;;5059597;28;20028;-79
2021/11/03 06:53:53;;;;;;;4.75;2.70;;;;;;;;;;5064971;28;20501;-82
2021/11/03 06:56:18;;;;;;;3.90;2.90;;;8.40;99.90;;;;;;5068870;28;20032;-81
2021/11/03 06:58:44;;;;;;;5.78;3.22;;;9.90;99.90;;;;;;5069720;28;20048;-80
2021/11/03 07:01:11;;;;;;;7.93;3.15;;;8.50;99.90;;;;;;5070102;28;20029;-84
2021/11/03 07:03:38;;;;;;;7.82;3.72;;;8.80;99.90;;;;;;5069120;28;20020;-83
2021/11/03 07:06:05;;;;;;;4.78;3.03;;;8.50;99.90;;;;;;5068327;28;20044;-80
2021/11/03 07:08:32;;;;;;;5.95;3.30;;;10.30;99.90;;;;;;5073753;28;20036;-84
2021/11/03 07:11:00;;;;;;;5.07;3.15;;;8.40;99.90;;;;;;5067607;28;20024;-80
2021/11/03 07:13:28;;;;;;;6.20;3.30;;;6.60;99.90;;;;;;5088058;28;20090;-83
2021/11/03 07:15:54;;;;;;;5.30;3.58;;;10.90;99.90;;;;;;5067288;28;20035;-82
2021/11/03 07:18:24;;;;;;;4.35;3.17;;;8.70;99.90;;;;;;5070720;28;20024;-80
2021/11/03 07:20:51;;;;;;;5.95;3.85;;;6.90;99.90;;;;;;5068412;28;20021;-81
2021/11/03 07:23:19;;;;;;;6.63;3.38;;;10.30;99.90;;;;;;5068594;28;20028;-85
2021/11/03 07:25:45;;;;;;;6.07;3.70;;;9.80;99.90;;;;;;5071513;28;20024;-82
2021/11/03 07:28:12;;;;;;;6.63;3.78;;;8.60;99.90;;;;;;5068956;28;20028;-80
2021/11/03 07:30:39;;;;;;;5.10;3.63;;;11.40;99.90;;;;;;5091859;28;20024;-83
2021/11/03 07:33:06;;;;;;;7.78;3.88;;;11.40;99.90;;;;;;5078081;28;22981;-81
2021/11/03 07:35:33;;;;;;;6.47;3.67;;;11.30;99.90;;;;;;5062359;28;20112;-82
2021/11/03 07:37:59;;;;;;;4.75;3.70;;;9.80;99.90;;;;;;5064442;28;20024;-84
2021/11/03 07:40:29;;;;;;;5.13;3.67;;;11.60;99.90;;;;;;5062236;28;20040;-84
2021/11/03 07:42:59;;;;;;;4.88;3.50;;;8.60;99.90;;;;;;5062793;28;20028;-86
2021/11/03 07:45:29;;;;;;;6.18;3.60;;;8.60;99.90;;;;;;5062690;28;20417;-86
2021/11/03 07:47:56;;;;;;;6.50;3.78;;;10.90;99.90;;;;;;5067696;28;20032;-80
2021/11/03 07:50:26;;;;;;;7.13;4.35;;;7.00;99.90;;;;;;5068698;28;20032;-81
2021/11/03 07:52:52;;;;;;;5.82;3.97;;;9.10;99.90;;;;;;5065103;28;20099;-80
2021/11/03 07:55:18;;;;;;;6.32;4.10;;;;;;;;;;5063517;28;20101;-81
2021/11/03 07:57:44;;;;;;;6.00;3.78;;;8.70;99.90;;;;;;5063521;28;20024;-80
2021/11/03 08:00:20;;;;;;;6.82;4.60;;;10.20;99.90;;;;;;5061191;28;20456;-84
2021/11/03 08:02:46;;;;;;;6.05;4.15;;;8.80;99.90;;;;;;5063167;28;20025;-82
2021/11/03 08:05:12;;;;;;;7.00;4.32;;;8.90;99.90;;;;;;5066393;28;20028;-84
2021/11/03 08:07:37;;;;;;;9.90;4.10;;;8.80;99.90;;;;;;5076890;28;20618;-84
2021/11/03 08:10:04;;;;;;;6.72;4.68;;;9.30;99.90;;;;;;5061060;28;20036;-83
2021/11/03 08:12:29;;;;;;;8.40;4.80;;;8.80;99.90;;;;;;5063455;28;20024;-83
2021/11/03 08:14:55;;;;;;;7.15;4.25;;;8.90;99.90;;;;;;5072768;28;20113;-82
2021/11/03 08:17:25;;;;;;;8.25;5.00;;;8.90;99.90;;;;;;5072901;28;20032;-85
2021/11/03 08:19:54;;;;;;;7.50;4.55;;;8.90;99.90;;;;;;5068940;28;20044;-85
2021/11/03 08:22:24;;;;;;;7.57;4.55;;;8.90;99.90;;;;;;5071593;28;20098;-83
2021/11/03 08:24:54;;;;;;;8.73;4.70;;;10.30;99.90;;;;;;5069569;28;20024;-83
2021/11/03 08:27:22;;;;;;;7.47;4.85;;;;;;;;;;5068834;28;20035;-84
2021/11/03 08:29:49;;;;;;;7.25;4.55;;;9.00;99.90;;;;;;5070216;28;20242;-82
2021/11/03 08:32:18;;;;;;;6.20;4.05;;;9.00;99.90;;;;;;5069667;28;20028;-81
2021/11/03 08:34:44;;;;;;;6.55;4.57;;;9.30;99.90;;;;;;5065678;28;20031;-82
2021/11/03 08:37:16;;;;;;;8.75;5.00;;;8.50;99.90;;;;;;5064607;28;20032;-80
2021/11/03 08:39:45;;;;;;;7.13;4.63;;;11.40;99.90;;;;;;5070331;28;20023;-81
2021/11/03 08:42:11;;;;;;;6.55;4.13;;;9.40;99.90;;;;;;5066045;28;20021;-80
2021/11/03 08:44:40;;;;;;;7.57;4.50;;;9.20;99.90;;;;;;5069704;28;20520;-84
2021/11/03 08:47:09;;;;;;;6.85;4.00;;;9.40;99.90;;;;;;5068858;28;20028;-83
2021/11/03 08:49:35;;;;;;;6.75;4.70;;;11.20;99.90;;;;;;5067104;28;20220;-80
2021/11/03 08:52:03;;;;;;;7.57;4.70;;;;;;;;;;5071513;28;20024;-81
2021/11/03 08:54:28;;;;;;;5.53;4.38;;;9.40;99.90;;;;;;5070037;28;20031;-82
2021/11/03 08:56:54;;;;;;;7.95;4.45;;;12.80;99.90;;;;;;5070771;28;20032;-81
2021/11/03 08:59:20;;;;;;;9.15;4.97;;;;;;;;;;5069438;28;20035;-82
2021/11/03 09:01:45;;;;;;;6.18;4.05;;;9.60;99.90;;;;;;5070265;28;20020;-80
2021/11/03 09:04:11;;;;;;;6.80;4.57;;;13.20;99.90;;;;;;5066801;28;20082;-80
2021/11/03 09:06:38;;;;;;;6.22;3.55;;;;;;;;;;5069851;28;20345;-82
2021/11/03 09:09:05;;;;;;;6.80;3.92;;;9.80;99.90;;;;;;5072198;28;20033;-79
2021/11/03 09:11:32;;;;;;;7.57;4.63;;;11.80;99.90;;;;;;5068344;28;20024;-82
2021/11/03 09:13:58;;;;;;;6.78;3.90;;;9.70;99.90;;;;;;5070087;28;20032;-82
2021/11/03 09:16:25;;;;;;;6.63;3.85;;;12.70;99.90;;;;;;5058411;28;20061;-81
2021/11/03 09:18:51;;;;;;;5.55;3.42;;;11.80;99.90;;;;;;5068168;28;20425;-82
2021/11/03 09:21:17;;;;;;;6.47;3.83;;;12.70;99.90;;;;;;5067476;28;20021;-81
2021/11/03 09:23:44;;;;;;;6.32;3.70;;;9.70;99.90;;;;;;5064610;28;20114;-81
2021/11/03 09:26:10;;;;;;;5.15;3.35;;;11.50;99.90;;;;;;5057680;28;20028;-87
2021/11/03 09:28:37;;;;;;;7.65;4.38;;;9.80;99.90;;;;;;5063507;28;20215;-80
2021/11/03 09:31:05;;;;;;;7.32;4.30;;;11.10;99.90;;;;;;5061694;28;20583;-82
2021/11/03 09:33:33;;;;;;;6.47;3.33;;;9.90;99.90;;;;;;5060279;28;20047;-82
2021/11/03 09:35:59;;;;;;;5.28;3.63;;;9.90;99.90;;;;;;5060053;28;20036;-85
2021/11/03 09:38:28;;;;;;;4.65;3.38;;;9.90;99.90;;;;;;5059819;28;20025;-84
2021/11/03 09:41:12;;;;;;;4.38;2.85;;;10.00;99.90;;;;;;5075065;28;20044;-86
2021/11/03 09:44:19;;;;;;;5.38;3.50;;;9.90;99.90;;;;;;5061328;28;20025;-87
2021/11/03 09:46:50;;;;;;;4.03;2.83;;;9.90;99.90;;;;;;5020191;28;20086;-82
2021/11/03 09:49:22;;;;;;;8.10;3.75;;;10.00;99.90;;;;;;5057551;28;20032;-86
2021/11/03 09:51:53;;;;;;;4.68;2.80;;;10.00;99.90;;;;;;5075811;28;20028;-81
2021/11/03 09:54:26;;;;;;;5.68;2.60;;;11.80;99.90;;;;;;5060616;28;20444;-84
2021/11/03 09:56:59;;;;;;;4.28;2.30;;;10.10;99.90;;;;;;5063010;28;20040;-80
2021/11/03 09:59:44;;;;;;;3.45;2.30;;;10.30;99.90;;;;;;5059388;28;20043;-81
2021/11/03 10:02:40;;;;;;;2.05;1.23;;;10.20;99.90;;;;;;5059674;28;20029;-84
2021/11/03 10:05:12;;;;;;;2.17;1.38;;;10.30;99.90;;;;;;5058561;28;20464;-81
2021/11/03 10:07:42;;;;;;;4.35;1.20;;;10.40;99.90;;;;;;5059700;28;20102;-82
2021/11/03 10:10:38;;;;;;;1.67;0.93;;;10.30;99.90;;;;;;5060123;28;20076;-81
2021/11/03 10:13:21;;;;;;;1.48;0.60;;;10.30;99.90;;;;;;5057997;28;20410;-82
2021/11/03 10:16:09;;;;;;;1.60;0.82;;;10.40;99.90;;;;;;5081298;28;20505;-83
2021/11/03 10:18:38;;;;;;;2.22;1.02;;;10.40;99.90;;;;;;5071691;28;20511;-79
2021/11/03 10:21:42;;;;;;;2.13;0.90;;;10.50;99.90;;;;;;5058327;28;20056;-80
2021/11/03 10:24:14;;;;;;;1.83;0.90;;;10.50;99.90;;;;;;5061310;28;20520;-81
2021/11/03 10:26:48;;;;;;;2.20;1.25;;;10.60;99.90;;;;;;5056760;28;20042;-79
2021/11/03 10:29:35;;;;;;;3.13;1.27;;;10.60;99.90;;;;;;5057991;28;20039;-80
2021/11/03 10:32:06;;;;;;;1.55;0.85;;;10.70;99.90;;;;;;5057445;28;20024;-85
2021/11/03 10:34:35;;;;;;;1.88;1.00;;;10.40;99.90;;;;;;5059187;28;20035;-80
2021/11/03 10:37:13;;;;;;;2.53;1.15;;;10.50;99.90;;;;;;5062189;28;20409;-82
2021/11/03 10:40:05;;;;;;;2.25;0.82;;;10.50;99.90;;;;;;5059441;28;20025;-79
2021/11/03 10:42:46;;;;;;;2.13;0.88;;;10.70;99.90;;;;;;5061805;28;20475;-80
2021/11/03 10:45:15;;;;;;;0.70;0.50;;;10.60;99.90;;;;;;5055917;28;20032;-84
2021/11/03 10:47:42;;;;;;;1.48;0.60;;;10.60;99.90;;;;;;5065367;28;20074;-84
2021/11/03 10:50:34;;;;;;;0.60;0.50;;;10.60;99.90;;;;;;5063622;28;20029;-81
2021/11/03 10:53:16;;;;;;;1.25;0.80;;;10.50;99.90;;;;;;5061873;28;20409;-79
2021/11/03 10:55:48;;;;;;;1.30;0.80;;;10.50;99.90;;;;;;5057651;28;20632;-82
2021/11/03 10:58:13;;;;;;;1.80;0.88;;;10.40;99.90;;;;;;5075704;28;20433;-81
2021/11/03 11:01:04;;;;;;;4.20;0.70;;;10.40;99.90;;;;;;5055368;28;20028;-83
2021/11/03 11:03:56;;;;;;;1.25;0.80;;;10.40;99.90;;;;;;5054215;28;20369;-86
2021/11/03 11:06:27;;;;;;;2.00;0.90;;;10.30;99.90;;;;;;5057824;28;20040;-81
2021/11/03 11:09:19;;;;;;;1.38;0.73;;;10.40;99.90;;;;;;5059663;28;20363;-80
2021/11/03 11:11:47;;;;;;;1.52;0.90;;;10.50;99.90;;;;;;5068088;28;20040;-80
2021/11/03 11:14:19;;;;;;;1.90;0.90;;;10.50;99.90;;;;;;5058046;28;20035;-84
2021/11/03 11:16:51;;;;;;;1.65;0.82;;;10.40;99.90;;;;;;5060767;28;20401;-80
2021/11/03 11:19:37;;;;;;;1.35;0.70;;;10.40;99.90;;;;;;5065272;28;20021;-82
2021/11/03 11:22:32;;;;;;;4.40;1.00;;;10.40;99.90;;;;;;5061056;28;20033;-81
2021/11/03 11:25:00;;;;;;;2.17;1.00;;;10.40;99.90;;;;;;5081908;28;20498;-83
2021/11/03 11:27:30;;;;;;;1.67;0.70;;;10.40;99.90;;;;;;5062375;28;20128;-80
2021/11/03 11:30:01;;;;;;;3.47;1.10;;;10.30;99.90;;;;;;5068563;28;20058;-80
2021/11/03 11:32:57;;;;;;;2.17;1.20;;;10.30;99.90;;;;;;5061900;28;20033;-84
2021/11/03 11:35:48;;;;;;;2.50;0.90;;;10.30;99.90;;;;;;5042929;28;20145;-82
2021/11/03 11:38:26;;;;;;;1.35;0.80;;;10.30;99.90;;;;;;5078828;28;20671;-82
2021/11/03 11:41:14;;;;;;;2.50;1.40;;;10.30;99.90;;;;;;5067740;28;20029;-81
2021/11/03 11:44:02;;;;;;;1.65;1.00;;;10.30;99.90;;;;;;5064792;28;20119;-83
2021/11/03 11:46:31;;;;;;;3.03;1.50;;;10.20;99.90;;;;;;5066979;28;20025;-83
2021/11/03 11:49:22;;;;;;;3.67;1.63;;;10.20;99.90;;;;;;5068905;28;20063;-80
2021/11/03 11:51:59;;;;;;;2.45;1.73;;;10.30;99.90;;;;;;5070790;28;20027;-82
2021/11/03 11:54:34;;;;;;;1.52;0.90;;;10.30;99.90;;;;;;5071852;28;20497;-81
2021/11/03 11:57:11;;;;;;;0.88;0.60;;;10.30;99.90;;;;;;5068543;28;20043;-81
2021/11/03 12:00:09;;;;;;;1.05;0.60;;;10.30;99.90;;;;;;5074732;28;20056;-81
2021/11/03 12:02:49;;;;;;;1.60;1.02;;;10.30;99.90;;;;;;5082653;28;20028;-81
2021/11/03 12:05:27;;;;;;;0.55;0.50;;;10.30;99.90;;;;;;5073278;28;20028;-82
2021/11/03 12:08:18;;;;;;;0.75;0.60;;;10.40;99.90;;;;;;5069158;28;20454;-83
2021/11/03 12:10:56;;;;;;;1.30;0.70;;;10.70;99.90;;;;;;5065812;28;20104;-80
2021/11/03 12:13:52;;;;;;;0.70;0.52;;;10.60;99.90;;;;;;5066244;28;20515;-84
2021/11/03 12:16:35;;;;;;;1.02;0.57;;;10.70;99.90;;;;;;5035387;28;20033;-82
2021/11/03 12:19:06;;;;;;;0.70;0.52;;;10.80;99.90;;;;;;5063397;28;20028;-84
2021/11/03 12:21:38;;;;;;;1.10;0.63;;;10.80;99.90;;;;;;5068927;28;20024;-80
2021/11/03 12:24:07;;;;;;;1.00;0.63;;;10.80;99.90;;;;;;5066431;28;20093;-81
2021/11/03 12:26:50;;;;;;;1.27;0.65;;;10.90;99.90;;;;;;5065133;28;23175;-81
2021/11/03 12:29:16;;;;;;;0.73;0.50;;;13.00;99.90;;;;;;5059511;28;20429;-81
2021/11/03 12:31:58;;;;;;;1.50;0.90;;;10.90;99.90;;;;;;5065313;28;20029;-82
2021/11/03 12:34:29;;;;;;;1.95;0.88;;;11.10;99.90;;;;;;5063671;28;20029;-82
2021/11/03 12:36:59;;;;;;;1.45;0.63;;;11.50;99.90;;;;;;5076214;28;20540;-81
2021/11/03 12:39:31;;;;;;;;;;;11.30;99.90;;;;;;5069138;28;20107;-83
2021/11/03 12:42:18;;;;;;;0.90;0.65;;;;;;;;;;5093530;28;19908;-81
2021/11/03 12:45:06;;;;;;;0.70;0.40;;;11.30;99.90;;;;;;5073851;28;20108;-78
2021/11/03 12:47:52;;;;;;;1.45;0.70;;;11.30;99.90;;;;;;5072562;28;20068;-82
2021/11/03 12:50:40;;;;;;;0.95;0.60;;;11.30;99.90;;;;;;5074932;28;20025;-82
2021/11/03 12:53:27;;;;;;;2.30;0.50;;;11.30;99.90;;;;;;5064848;28;20087;-85
2021/11/03 12:55:55;;;;;;;0.70;0.50;;;11.30;99.90;;;;;;5072686;28;20091;-82
2021/11/03 12:58:41;;;;;;;1.05;0.60;;;11.20;99.90;;;;;;5070329;28;20048;-86
2021/11/03 13:01:23;;;;;;;5.63;2.42;;;11.20;99.90;;;;;;5075634;28;20455;-85
2021/11/03 13:04:01;;;;;;;7.63;2.70;;;11.20;99.90;;;;;;5069037;28;20024;-82
2021/11/03 13:06:31;;;;;;;0.93;0.70;;;11.30;99.90;;;;;;5072023;28;20024;-80
2021/11/03 13:08:57;;;;;;;1.13;0.70;;;11.10;99.90;;;;;;5072645;28;20036;-83
2021/11/03 13:11:25;;;;;;;2.53;1.00;;;11.00;99.90;;;;;;5075515;28;20115;-82
2021/11/03 13:14:02;;;;;;;2.28;1.10;;;10.90;99.90;;;;;;5072745;28;20270;-80
2021/11/03 13:16:31;;;;;;;1.80;0.75;;;10.80;99.90;;;;;;5070895;28;20028;-81